Rockwell, Illinois
Current Conditions -  °F | °C
As of 10:15 PM on Friday 19 Dec 2014 (Local Time) from KVYS Reporting Station
Overcast Overcast  
Wind Chill: 30°   Ceiling: 3500
Heat Index: 30°   Visibility: 10mi
Dew Point: 26°   Wind: 0mph
Humidity: 83%   Direction: NA
Pressure: 30.27"   Gusts: NA
Location:  41.3955°N, 89.0957°W
Report Text: KVYS 200415Z AUTO 00000KT 10SM OVC035 M01/M03 A3027 RMK AO2 T10101035
Loading
Personal Weather Stations






























Interactive Weather Map New forecast layout! Learn more

10-Day Weather Forecast

Advertisements
Track Severe Weather on mobile